»·PEaware :: N733TR KGEG-KHQM

N733TR :: KGEG-KHQM

FLIGHT INFORMATION

Flight Status: Arrived
Operator: Privately registered:
United States
More flights under this callsign
Pilot: Jonathan B. (787)
Aircraft: ECLIPSE 500
(EA50)
More flights by this aircraft type
Origin: KGEG Spokane Intl
United States
Destination: KHQM Bowerman
United States
More flights between these airports :: More routes between these airports
Route:
File this flight plan on PilotEdge
Remarks: wa alphabet
Altitude:
(Current/Filed)
16,500ft
Speed:
(Current/Filed)
320kts
Departed: 16-Aug-20 02:13 PM
Arrived: 16-Aug-20 03:18 PM
Distance/Time
Traveled:
263nm/1:05
Distance/Time
To Go:
Arrived

Flight Plot

Page will automatically refresh every two minutes.

Flight plan parsing failed; only flown route is shown


Map Options




Map Legend


Flown Route
Filed Route
Departure Airport
Arrival Airport
Navaid (VOR, NDB)
Fix

Horizontal Profiles

Position Reports

Time Latitude Longitude Heading Altitude Ground
Speed
16-Aug-20 13:59 47.620570 -117.526794 269 2387ft 0kts
16-Aug-20 14:00 47.620570 -117.526794 269 2387ft 0kts
16-Aug-20 14:01 47.620570 -117.526794 269 2387ft 0kts
16-Aug-20 14:02 47.620570 -117.526794 269 2387ft 0kts
16-Aug-20 14:03 47.620570 -117.526794 269 2387ft 0kts
16-Aug-20 14:04 47.620570 -117.526794 269 2387ft 0kts
16-Aug-20 14:05 47.620570 -117.526794 269 2387ft 0kts
16-Aug-20 14:06 47.620570 -117.526794 269 2387ft 0kts
16-Aug-20 14:07 47.620570 -117.526794 269 2387ft 0kts
16-Aug-20 14:08 47.620884 -117.528364 304 2387ft 8kts
16-Aug-20 14:09 47.619514 -117.532462 223 2387ft 16kts
16-Aug-20 14:10 47.618036 -117.535748 272 2387ft 6kts
16-Aug-20 14:11 47.618046 -117.536062 272 2387ft 0kts
16-Aug-20 14:12 47.619821 -117.535446 45 2387ft 56kts
16-Aug-20 14:13 47.641800 -117.496907 60 3635ft 151kts
16-Aug-20 14:14 47.659204 -117.442708 78 5991ft 141kts
16-Aug-20 14:15 47.650918 -117.406596 218 7638ft 156kts
16-Aug-20 14:16 47.629542 -117.476644 253 8616ft 231kts
16-Aug-20 14:17 47.616655 -117.586827 259 8628ft 302kts
16-Aug-20 14:18 47.605942 -117.717133 260 8717ft 327kts
16-Aug-20 14:19 47.595720 -117.851679 261 9072ft 330kts
16-Aug-20 14:20 47.585609 -117.984911 261 8635ft 312kts
16-Aug-20 14:21 47.574788 -118.105863 258 8627ft 285kts
16-Aug-20 14:22 47.562719 -118.220021 258 8628ft 277kts
16-Aug-20 14:23 47.551009 -118.331875 258 8628ft 277kts
16-Aug-20 14:24 47.538669 -118.448498 258 8577ft 293kts
16-Aug-20 14:25 47.525389 -118.567959 258 8522ft 294kts
16-Aug-20 14:26 47.511838 -118.686170 258 8518ft 292kts
16-Aug-20 14:27 47.498320 -118.804447 258 8518ft 292kts
16-Aug-20 14:28 47.485114 -118.923016 258 8518ft 291kts
16-Aug-20 14:29 47.461888 -119.035420 243 8518ft 287kts
16-Aug-20 14:30 47.437843 -119.147800 250 8518ft 286kts
16-Aug-20 14:32 47.413940 -119.259377 250 8517ft 285kts
16-Aug-20 14:33 47.389721 -119.370685 251 8517ft 284kts
16-Aug-20 14:34 47.364650 -119.480697 248 8508ft 284kts
16-Aug-20 14:35 47.341993 -119.596683 251 8519ft 299kts
16-Aug-20 14:36 47.325413 -119.717683 254 8517ft 304kts
16-Aug-20 14:37 47.306992 -119.839562 254 8533ft 300kts
16-Aug-20 14:38 47.287282 -119.956122 254 8537ft 288kts
16-Aug-20 14:39 47.269297 -120.070599 254 8544ft 286kts
16-Aug-20 14:40 47.251496 -120.184939 255 8544ft 286kts
16-Aug-20 14:41 47.233848 -120.299189 255 8547ft 286kts
16-Aug-20 14:42 47.217263 -120.412446 255 9510ft 253kts
16-Aug-20 14:43 47.204372 -120.509045 253 10572ft 255kts
16-Aug-20 14:44 47.187675 -120.616124 253 10572ft 279kts
16-Aug-20 14:45 47.169760 -120.729066 252 10571ft 287kts
16-Aug-20 14:46 47.151435 -120.844069 252 10571ft 290kts
16-Aug-20 14:46 47.136062 -120.940481 252 10571ft 291kts
16-Aug-20 14:48 47.108874 -121.072865 248 10570ft 290kts
16-Aug-20 14:49 47.085279 -121.186118 251 10570ft 290kts
16-Aug-20 14:49 47.068314 -121.281753 251 10542ft 291kts
16-Aug-20 14:50 47.047995 -121.397234 251 10493ft 294kts
16-Aug-20 14:51 47.026081 -121.511656 251 10486ft 286kts
16-Aug-20 14:53 47.000169 -121.641374 251 10487ft 282kts
16-Aug-20 14:53 46.981301 -121.734376 250 10492ft 300kts
16-Aug-20 14:54 46.957638 -121.849277 251 10489ft 297kts
16-Aug-20 14:55 46.933846 -121.965406 251 10489ft 299kts
16-Aug-20 14:56 46.910019 -122.080764 251 10488ft 289kts
16-Aug-20 14:57 46.903486 -122.194988 270 10492ft 293kts
16-Aug-20 14:58 46.907924 -122.314273 271 10045ft 290kts
16-Aug-20 14:59 46.913016 -122.430823 272 9249ft 291kts
16-Aug-20 15:00 46.918294 -122.549889 272 8451ft 291kts
16-Aug-20 15:01 46.923363 -122.666196 272 7656ft 287kts
16-Aug-20 15:02 46.928290 -122.782403 273 6860ft 285kts
16-Aug-20 15:03 46.933249 -122.900601 273 6056ft 298kts
16-Aug-20 15:04 46.937979 -123.017171 274 4693ft 279kts
16-Aug-20 15:05 46.942481 -123.129968 274 4492ft 274kts
16-Aug-20 15:06 46.946851 -123.241290 272 4487ft 273kts
16-Aug-20 15:07 46.950976 -123.351898 271 4483ft 273kts
16-Aug-20 15:08 46.954778 -123.456255 271 4494ft 246kts
16-Aug-20 15:09 46.960791 -123.554837 279 4024ft 248kts
16-Aug-20 15:10 46.946227 -123.634188 238 3249ft 157kts
16-Aug-20 15:11 46.924936 -123.687387 274 2673ft 137kts
16-Aug-20 15:12 46.943447 -123.737895 312 1977ft 160kts
16-Aug-20 15:13 46.971659 -123.792716 305 1481ft 166kts
16-Aug-20 15:14 46.983034 -123.846993 254 1422ft 118kts
16-Aug-20 15:15 46.976202 -123.894483 263 792ft 107kts
16-Aug-20 15:16 46.971873 -123.930882 262 22ft 68kts
16-Aug-20 15:17 46.971673 -123.939955 20 21ft 8kts
16-Aug-20 15:18 46.972293 -123.938317 350 21ft 0kts

Navigation Log

Ident Type
Flight plan parsing failed, navigation log unavailable